createdAt,value
2018-01-17T00:00:30.649Z,2.69
2018-01-17T00:01:31.361Z,2.72
2018-01-17T00:02:32.065Z,2.68
2018-01-17T00:03:32.765Z,2.74
2018-01-17T00:04:33.478Z,2.65
2018-01-17T00:05:34.180Z,2.75
2018-01-17T00:06:34.892Z,2.68
2018-01-17T00:07:35.594Z,2.65
2018-01-17T00:08:36.297Z,2.67
2018-01-17T00:09:36.998Z,2.62
2018-01-17T00:10:37.710Z,2.69
2018-01-17T00:11:38.423Z,2.65
2018-01-17T00:12:39.124Z,2.74
2018-01-17T00:13:39.825Z,2.67
2018-01-17T00:14:40.529Z,2.62
2018-01-17T00:15:41.228Z,2.65
2018-01-17T00:16:41.930Z,2.54
2018-01-17T00:17:42.643Z,2.67
2018-01-17T00:18:43.345Z,2.57
2018-01-17T00:19:44.051Z,2.67
2018-01-17T00:20:44.749Z,2.64
2018-01-17T00:21:45.452Z,2.67
2018-01-17T00:22:46.151Z,2.60
2018-01-17T00:23:46.853Z,2.56
2018-01-17T00:24:47.554Z,2.61
2018-01-17T00:25:48.257Z,2.64
2018-01-17T00:26:48.958Z,2.68
2018-01-17T00:27:49.674Z,2.60
2018-01-17T00:28:50.389Z,2.67
2018-01-17T00:29:51.091Z,2.62
2018-01-17T00:30:51.794Z,2.65
2018-01-17T00:31:52.498Z,2.62
2018-01-17T00:32:53.212Z,2.60
2018-01-17T00:33:53.925Z,2.67
2018-01-17T00:34:54.627Z,2.64
2018-01-17T00:35:55.330Z,2.65
2018-01-17T00:36:56.031Z,2.64
2018-01-17T00:37:56.733Z,2.56
2018-01-17T00:38:57.446Z,2.57
2018-01-17T00:39:58.149Z,2.62
2018-01-17T00:40:58.863Z,2.62
2018-01-17T00:41:59.565Z,2.68
2018-01-17T00:43:00.273Z,2.60
2018-01-17T00:44:00.987Z,2.60
2018-01-17T00:45:01.690Z,2.64
2018-01-17T00:46:02.392Z,2.67
2018-01-17T00:47:03.106Z,2.62
2018-01-17T00:48:03.821Z,2.61
2018-01-17T00:49:04.522Z,2.62
2018-01-17T00:50:05.224Z,2.65
2018-01-17T00:51:05.926Z,2.67
2018-01-17T00:52:06.891Z,2.65
2018-01-17T00:53:07.593Z,2.65
2018-01-17T00:54:08.296Z,2.69
2018-01-17T00:55:08.997Z,2.65
2018-01-17T00:56:09.700Z,2.62
2018-01-17T00:57:10.653Z,2.57
2018-01-17T00:58:11.366Z,2.62
2018-01-17T00:59:12.079Z,2.64
2018-01-17T01:00:12.793Z,2.67
2018-01-17T01:01:13.497Z,2.62
2018-01-17T01:02:14.201Z,2.75
2018-01-17T01:03:14.902Z,2.77
2018-01-17T01:04:15.617Z,2.79
2018-01-17T01:05:16.331Z,2.83
2018-01-17T01:06:17.037Z,2.83
2018-01-17T01:07:17.736Z,2.80
2018-01-17T01:08:18.437Z,2.87
2018-01-17T01:09:19.139Z,2.92
2018-01-17T01:10:19.841Z,2.83
2018-01-17T01:11:20.541Z,2.83
2018-01-17T01:12:21.244Z,2.80
2018-01-17T01:13:21.945Z,2.82
2018-01-17T01:14:22.646Z,2.80
2018-01-17T01:15:23.348Z,2.92
2018-01-17T01:16:24.050Z,2.87
2018-01-17T01:17:24.753Z,2.98
2018-01-17T01:18:25.467Z,3.00
2018-01-17T01:19:26.167Z,3.00
2018-01-17T01:20:26.868Z,3.03
2018-01-17T01:21:27.580Z,3.11
2018-01-17T01:22:28.281Z,3.10
2018-01-17T01:23:28.994Z,3.10
2018-01-17T01:24:29.695Z,3.05
2018-01-17T01:25:30.398Z,3.13
2018-01-17T01:26:31.099Z,3.07
2018-01-17T01:27:31.800Z,3.18
2018-01-17T01:28:32.500Z,3.18
2018-01-17T01:29:33.201Z,3.16
2018-01-17T01:30:33.903Z,3.22
2018-01-17T01:31:34.604Z,3.22
2018-01-17T01:33:35.923Z,3.14
2018-01-17T01:34:36.626Z,3.28
2018-01-17T01:35:37.331Z,3.28
2018-01-17T01:36:38.033Z,3.29
2018-01-17T01:37:38.739Z,3.26
2018-01-17T01:38:39.440Z,3.36
2018-01-17T01:39:40.142Z,3.14
2018-01-17T01:40:40.864Z,3.31
2018-01-17T01:41:41.562Z,3.16
2018-01-17T01:42:42.264Z,3.19
2018-01-17T01:43:42.964Z,3.21
2018-01-17T01:44:43.678Z,3.14
2018-01-17T01:45:44.379Z,3.22
2018-01-17T01:46:45.082Z,3.18
2018-01-17T01:47:45.781Z,3.18
2018-01-17T01:48:46.497Z,3.10
2018-01-17T01:49:47.199Z,2.90
2018-01-17T01:50:47.900Z,2.85
2018-01-17T01:51:48.613Z,2.67
2018-01-17T01:52:49.315Z,2.57
2018-01-17T01:53:50.030Z,2.51
2018-01-17T01:54:50.730Z,2.43
2018-01-17T01:55:51.433Z,2.44
2018-01-17T01:56:52.134Z,2.43
2018-01-17T01:57:52.837Z,2.43
2018-01-17T01:58:53.534Z,2.46
2018-01-17T01:59:54.237Z,2.43
2018-01-17T02:00:54.941Z,2.43
2018-01-17T02:01:55.656Z,2.35
2018-01-17T02:02:56.359Z,2.33
2018-01-17T02:03:57.076Z,2.35
2018-01-17T02:04:57.781Z,2.42
2018-01-17T02:05:58.495Z,2.43
2018-01-17T02:06:59.209Z,2.44
2018-01-17T02:07:59.913Z,2.31
2018-01-17T02:09:00.615Z,2.32
2018-01-17T02:10:01.316Z,2.25
2018-01-17T02:11:02.032Z,2.31
2018-01-17T02:12:02.751Z,2.29
2018-01-17T02:13:03.461Z,2.28
2018-01-17T02:14:04.161Z,2.20
2018-01-17T02:15:04.864Z,2.20
2018-01-17T02:16:05.567Z,2.14
2018-01-17T02:17:06.280Z,2.00
2018-01-17T02:18:06.982Z,2.11
2018-01-17T02:19:07.684Z,2.04
2018-01-17T02:20:08.385Z,1.95
2018-01-17T02:21:09.085Z,2.00
2018-01-17T02:22:09.799Z,1.94
2018-01-17T02:23:10.501Z,1.97
2018-01-17T02:24:11.200Z,1.94
2018-01-17T02:25:11.902Z,1.81
2018-01-17T02:26:12.603Z,1.87
2018-01-17T02:27:13.308Z,1.88
2018-01-17T02:28:14.006Z,1.74
2018-01-17T02:29:14.718Z,1.78
2018-01-17T02:30:15.430Z,1.77
2018-01-17T02:31:16.132Z,1.76
2018-01-17T02:32:16.833Z,1.80
2018-01-17T02:33:17.532Z,1.78
2018-01-17T02:34:18.232Z,1.74
2018-01-17T02:35:18.931Z,1.81
2018-01-17T02:36:19.645Z,1.84
2018-01-17T02:37:20.345Z,1.85
2018-01-17T02:38:21.044Z,1.78
2018-01-17T02:39:21.745Z,1.78
2018-01-17T02:40:22.448Z,1.76
2018-01-17T02:41:23.151Z,1.84
2018-01-17T02:42:23.852Z,1.88
2018-01-17T02:43:24.553Z,1.85
2018-01-17T02:44:25.260Z,1.81
2018-01-17T02:45:25.972Z,1.80
2018-01-17T02:46:26.674Z,1.84
2018-01-17T02:47:27.374Z,1.76
2018-01-17T02:48:28.075Z,1.73
2018-01-17T02:49:28.789Z,1.71
2018-01-17T02:50:29.490Z,1.63
2018-01-17T02:51:30.191Z,1.68
2018-01-17T02:52:30.892Z,1.66
2018-01-17T02:53:31.593Z,1.76
2018-01-17T02:54:32.292Z,1.71
2018-01-17T02:55:32.996Z,1.66
2018-01-17T02:56:33.698Z,1.70
2018-01-17T02:57:34.414Z,1.68
2018-01-17T02:58:35.115Z,1.68
2018-01-17T02:59:35.815Z,1.70
2018-01-17T03:00:36.530Z,1.70
2018-01-17T03:01:37.233Z,1.77
2018-01-17T03:02:37.948Z,1.76
2018-01-17T03:03:38.650Z,1.67
2018-01-17T03:04:39.366Z,1.77
2018-01-17T03:05:40.070Z,1.80
2018-01-17T03:06:40.772Z,1.71
2018-01-17T03:07:41.486Z,1.78
2018-01-17T03:08:42.186Z,1.80
2018-01-17T03:09:42.890Z,1.84
2018-01-17T03:10:43.588Z,1.88
2018-01-17T03:11:44.291Z,1.85
2018-01-17T03:12:44.994Z,1.91
2018-01-17T03:13:45.695Z,1.81
2018-01-17T03:14:46.400Z,1.92
2018-01-17T03:15:47.102Z,1.91
2018-01-17T03:16:47.806Z,1.97
2018-01-17T03:17:48.508Z,1.94
2018-01-17T03:18:49.212Z,2.04
2018-01-17T03:19:49.922Z,1.95
2018-01-17T03:20:50.618Z,2.04
2018-01-17T03:21:51.327Z,1.89
2018-01-17T03:22:52.025Z,2.02
2018-01-17T03:23:52.729Z,2.07
2018-01-17T03:24:53.430Z,2.08
2018-01-17T03:25:54.133Z,2.04
2018-01-17T03:26:54.833Z,2.04
2018-01-17T03:27:55.549Z,2.07
2018-01-17T03:28:56.253Z,2.04
2018-01-17T03:29:56.964Z,2.02
2018-01-17T03:30:57.677Z,2.02
2018-01-17T03:31:58.393Z,2.08
2018-01-17T03:32:59.095Z,2.08
2018-01-17T03:33:59.813Z,2.10
2018-01-17T03:35:00.511Z,2.15
2018-01-17T03:36:01.223Z,2.11
2018-01-17T03:37:01.923Z,2.02
2018-01-17T03:38:02.622Z,2.13
2018-01-17T03:39:03.327Z,2.14
2018-01-17T03:40:04.025Z,2.15
2018-01-17T03:41:04.739Z,2.15
2018-01-17T03:42:05.438Z,2.14
2018-01-17T03:43:06.153Z,2.13
2018-01-17T03:44:06.856Z,2.18
2018-01-17T03:45:07.558Z,2.18
2018-01-17T03:46:08.258Z,2.13
2018-01-17T03:47:08.959Z,2.14
2018-01-17T03:48:09.672Z,2.17
2018-01-17T03:49:10.410Z,2.17
2018-01-17T03:50:11.073Z,2.14
2018-01-17T03:51:11.775Z,2.14
2018-01-17T03:52:12.478Z,2.14
2018-01-17T03:53:13.179Z,2.15
2018-01-17T03:54:13.880Z,2.15
2018-01-17T03:55:14.582Z,2.24
2018-01-17T03:56:15.282Z,2.20
2018-01-17T03:57:15.986Z,2.20
2018-01-17T03:58:16.684Z,2.13
2018-01-17T03:59:17.396Z,2.18
2018-01-17T04:00:18.098Z,2.13
2018-01-17T04:01:18.799Z,2.13
2018-01-17T04:02:19.512Z,2.17
2018-01-17T04:03:20.213Z,2.18
2018-01-17T04:04:20.915Z,2.15
2018-01-17T04:05:21.627Z,2.14
2018-01-17T04:06:22.328Z,2.20
2018-01-17T04:07:23.045Z,2.14
2018-01-17T04:08:23.746Z,2.18
2018-01-17T04:09:24.447Z,2.22
2018-01-17T04:10:25.151Z,2.18
2018-01-17T04:11:25.854Z,2.14
2018-01-17T04:12:26.559Z,2.13
2018-01-17T04:13:27.273Z,2.18
2018-01-17T04:14:27.973Z,2.13
2018-01-17T04:15:28.675Z,2.02
2018-01-17T04:16:29.377Z,2.13
2018-01-17T04:17:30.079Z,2.17
2018-01-17T04:18:30.783Z,2.14
2018-01-17T04:19:31.497Z,2.15
2018-01-17T04:20:32.197Z,2.15
2018-01-17T04:21:32.912Z,2.13
2018-01-17T04:22:33.598Z,2.18
2018-01-17T04:23:34.299Z,2.20
2018-01-17T04:24:35.000Z,2.17
2018-01-17T04:25:35.702Z,2.10
2018-01-17T04:26:36.406Z,2.11
2018-01-17T04:27:37.107Z,2.17
2018-01-17T04:28:37.810Z,2.18
2018-01-17T04:29:38.512Z,2.18
2018-01-17T04:30:39.213Z,2.07
2018-01-17T04:31:39.915Z,2.10
2018-01-17T04:32:40.617Z,2.11
2018-01-17T04:33:41.318Z,2.11
2018-01-17T04:34:42.019Z,2.04
2018-01-17T04:35:42.721Z,2.04
2018-01-17T04:36:43.420Z,2.04
2018-01-17T04:37:44.137Z,2.10
2018-01-17T04:38:44.837Z,2.06
2018-01-17T04:39:45.541Z,2.04
2018-01-17T04:40:46.243Z,2.10
2018-01-17T04:41:46.944Z,2.08
2018-01-17T04:42:47.645Z,2.06
2018-01-17T04:43:48.346Z,2.06
2018-01-17T04:44:49.049Z,2.06
2018-01-17T04:45:49.750Z,2.13
2018-01-17T04:46:50.465Z,2.08
2018-01-17T04:47:51.177Z,2.10
2018-01-17T04:48:51.872Z,2.10
2018-01-17T04:49:52.588Z,2.13
2018-01-17T04:50:53.287Z,2.17
2018-01-17T04:51:54.000Z,2.20
2018-01-17T04:52:54.701Z,2.14
2018-01-17T04:53:55.403Z,2.17
2018-01-17T04:54:56.103Z,2.18
2018-01-17T04:55:56.803Z,2.11
2018-01-17T04:56:57.515Z,2.10
2018-01-17T04:57:58.216Z,2.07
2018-01-17T04:58:58.916Z,2.08
2018-01-17T04:59:59.632Z,2.10
2018-01-17T05:01:00.349Z,2.14
2018-01-17T05:02:01.051Z,2.24
2018-01-17T05:03:01.752Z,2.20
2018-01-17T05:04:02.468Z,2.14
2018-01-17T05:05:03.167Z,2.20
2018-01-17T05:06:03.915Z,2.18
2018-01-17T05:07:04.582Z,2.13
2018-01-17T05:08:05.298Z,2.14
2018-01-17T05:09:05.999Z,2.22
2018-01-17T05:10:06.700Z,2.18
2018-01-17T05:11:07.404Z,2.20
2018-01-17T05:12:08.105Z,2.32
2018-01-17T05:13:08.805Z,2.29
2018-01-17T05:14:09.506Z,2.29
2018-01-17T05:15:10.211Z,2.32
2018-01-17T05:16:10.906Z,2.29
2018-01-17T05:17:11.606Z,2.31
2018-01-17T05:18:12.306Z,2.31
2018-01-17T05:19:13.007Z,2.35
2018-01-17T05:20:13.711Z,2.36
2018-01-17T05:21:14.411Z,2.33
2018-01-17T05:22:15.124Z,2.28
2018-01-17T05:23:15.838Z,2.38
2018-01-17T05:24:16.534Z,2.36
2018-01-17T05:25:17.237Z,2.32
2018-01-17T05:26:17.935Z,2.31
2018-01-17T05:27:18.649Z,2.33
2018-01-17T05:28:19.349Z,2.42
2018-01-17T05:29:20.062Z,2.39
2018-01-17T05:30:20.764Z,2.33
2018-01-17T05:31:21.464Z,2.31
2018-01-17T05:32:22.165Z,2.43
2018-01-17T05:33:22.873Z,2.43
2018-01-17T05:34:23.566Z,2.42
2018-01-17T05:35:24.268Z,2.46
2018-01-17T05:36:24.969Z,2.42
2018-01-17T05:37:25.667Z,2.46
2018-01-17T05:38:26.368Z,2.46
2018-01-17T05:39:27.071Z,2.49
2018-01-17T05:40:27.786Z,2.53
2018-01-17T05:41:28.501Z,2.43
2018-01-17T05:42:29.201Z,2.57
2018-01-17T05:43:29.903Z,2.56
2018-01-17T05:44:30.602Z,2.50
2018-01-17T05:45:31.303Z,2.43
2018-01-17T05:46:32.005Z,2.47
2018-01-17T05:47:32.705Z,2.49
2018-01-17T05:48:33.405Z,2.49
2018-01-17T05:49:34.106Z,2.49
2018-01-17T05:50:34.807Z,2.54
2018-01-17T05:51:35.507Z,2.50
2018-01-17T05:52:36.210Z,2.57
2018-01-17T05:53:36.910Z,2.51
2018-01-17T05:54:37.615Z,2.51
2018-01-17T05:55:38.315Z,2.56
2018-01-17T05:56:39.017Z,2.56
2018-01-17T05:57:39.719Z,2.42
2018-01-17T05:58:40.421Z,2.53
2018-01-17T05:59:41.121Z,2.56
2018-01-17T06:00:41.823Z,2.43
2018-01-17T06:01:42.524Z,2.50
2018-01-17T06:02:43.225Z,2.54
2018-01-17T06:03:43.927Z,2.44
2018-01-17T06:04:44.625Z,2.49
2018-01-17T06:05:45.325Z,2.56
2018-01-17T06:06:46.027Z,2.51
2018-01-17T06:07:46.729Z,2.43
2018-01-17T06:08:47.429Z,2.35
2018-01-17T06:09:48.131Z,2.57
2018-01-17T06:10:48.834Z,2.46
2018-01-17T06:11:49.535Z,2.47
2018-01-17T06:12:50.235Z,2.43
2018-01-17T06:13:50.934Z,2.54
2018-01-17T06:14:51.650Z,2.61
2018-01-17T06:15:52.349Z,2.39
2018-01-17T06:16:53.049Z,2.54
2018-01-17T06:17:53.749Z,2.51
2018-01-17T06:18:54.462Z,2.44
2018-01-17T06:19:55.162Z,2.38
2018-01-17T06:20:55.865Z,2.54
2018-01-17T06:21:56.566Z,2.47
2018-01-17T06:22:57.267Z,2.47
2018-01-17T06:23:57.966Z,2.49
2018-01-17T06:24:58.666Z,2.53
2018-01-17T06:25:59.367Z,2.50
2018-01-17T06:27:00.067Z,2.49
2018-01-17T06:28:00.769Z,2.47
2018-01-17T06:29:01.485Z,2.51
2018-01-17T06:30:02.187Z,2.51
2018-01-17T06:31:02.902Z,2.51
2018-01-17T06:32:03.615Z,2.51
2018-01-17T06:33:04.330Z,2.54
2018-01-17T06:34:05.045Z,2.56
2018-01-17T06:35:05.747Z,2.60
2018-01-17T06:36:06.461Z,2.61
2018-01-17T06:37:07.163Z,2.61
2018-01-17T06:38:07.865Z,2.53
2018-01-17T06:39:08.566Z,2.62
2018-01-17T06:40:09.269Z,2.51
2018-01-17T06:41:09.970Z,2.56
2018-01-17T06:42:10.684Z,2.61
2018-01-17T06:43:11.405Z,2.54
2018-01-17T06:44:12.503Z,2.54
2018-01-17T06:45:12.803Z,2.60
2018-01-17T06:46:13.507Z,2.51
2018-01-17T06:47:14.211Z,2.62
2018-01-17T06:48:14.928Z,2.64
2018-01-17T06:49:15.631Z,2.65
2018-01-17T06:50:16.331Z,2.50
2018-01-17T06:51:17.050Z,2.56
2018-01-17T06:52:17.749Z,2.50
2018-01-17T06:53:18.463Z,2.54
2018-01-17T06:54:19.162Z,2.56
2018-01-17T06:55:19.880Z,2.51
2018-01-17T06:56:20.586Z,2.54
2018-01-17T06:57:21.283Z,2.51
2018-01-17T06:58:21.985Z,2.56
2018-01-17T06:59:22.690Z,2.54
2018-01-17T07:00:23.388Z,2.60
2018-01-17T07:01:24.090Z,2.50
2018-01-17T07:02:24.791Z,2.50
2018-01-17T07:03:25.506Z,2.51
2018-01-17T07:04:26.221Z,2.54
2018-01-17T07:05:26.925Z,2.49
2018-01-17T07:06:27.624Z,2.54
2018-01-17T07:07:28.324Z,2.51
2018-01-17T07:08:29.039Z,2.53
2018-01-17T07:09:29.744Z,2.53
2018-01-17T07:10:30.442Z,2.51
2018-01-17T07:11:31.143Z,2.49
2018-01-17T07:12:31.856Z,2.51
2018-01-17T07:13:32.560Z,2.49
2018-01-17T07:14:33.264Z,2.53
2018-01-17T07:15:33.963Z,2.46
2018-01-17T07:16:34.665Z,2.49
2018-01-17T07:17:35.367Z,2.49
2018-01-17T07:18:36.068Z,2.54
2018-01-17T07:19:36.776Z,2.53
2018-01-17T07:20:37.485Z,2.49
2018-01-17T07:21:38.186Z,2.46
2018-01-17T07:22:38.888Z,2.47
2018-01-17T07:23:39.602Z,2.56
2018-01-17T07:24:40.302Z,2.47
2018-01-17T07:25:41.005Z,2.60
2018-01-17T07:26:41.708Z,2.56
2018-01-17T07:27:42.410Z,2.64
2018-01-17T07:28:43.129Z,2.64
2018-01-17T07:29:43.846Z,2.62
2018-01-17T07:30:44.551Z,2.67
2018-01-17T07:31:45.267Z,2.65
2018-01-17T07:32:45.974Z,2.67
2018-01-17T07:33:46.687Z,2.67
2018-01-17T07:34:47.390Z,2.65
2018-01-17T07:35:48.097Z,2.61
2018-01-17T07:36:48.802Z,2.67
2018-01-17T07:37:49.506Z,2.64
2018-01-17T07:38:50.210Z,2.62
2018-01-17T07:39:50.914Z,2.65
2018-01-17T07:40:51.618Z,2.62
2018-01-17T07:41:52.319Z,2.61
2018-01-17T07:42:53.020Z,2.62
2018-01-17T07:43:53.727Z,2.64
2018-01-17T07:44:54.438Z,2.60
2018-01-17T07:45:55.141Z,2.62
2018-01-17T07:46:55.843Z,2.56
2018-01-17T07:47:56.547Z,2.50
2018-01-17T07:48:57.248Z,2.51
2018-01-17T07:49:57.950Z,2.50
2018-01-17T07:50:58.654Z,2.53
2018-01-17T07:51:59.357Z,2.50
2018-01-17T07:53:00.059Z,2.51
2018-01-17T07:54:00.765Z,2.54
2018-01-17T07:55:01.466Z,2.51
2018-01-17T07:56:02.167Z,2.54
2018-01-17T07:57:02.871Z,2.57
2018-01-17T07:58:03.573Z,2.44
2018-01-17T07:59:04.290Z,2.31
2018-01-17T08:00:04.994Z,2.28
2018-01-17T08:01:05.698Z,2.18
2018-01-17T08:02:06.417Z,2.18
2018-01-17T08:03:07.119Z,2.17
2018-01-17T08:04:07.823Z,2.08
2018-01-17T08:05:08.527Z,2.07
2018-01-17T08:06:09.245Z,2.00
2018-01-17T08:07:09.948Z,2.00
2018-01-17T08:08:10.656Z,1.95
2018-01-17T08:09:11.352Z,1.85
2018-01-17T08:10:12.056Z,1.91
2018-01-17T08:11:12.769Z,1.71
2018-01-17T08:12:13.474Z,1.74
2018-01-17T08:13:14.177Z,1.87
2018-01-17T08:14:14.880Z,1.73
2018-01-17T08:15:15.584Z,1.71
2018-01-17T08:16:16.288Z,1.70
2018-01-17T08:17:16.991Z,1.74
2018-01-17T08:18:17.693Z,1.76
2018-01-17T08:19:18.396Z,1.70
2018-01-17T08:20:19.112Z,1.70
2018-01-17T08:21:19.818Z,1.67
2018-01-17T08:22:20.523Z,1.66
2018-01-17T08:23:21.230Z,1.71
2018-01-17T08:24:21.933Z,1.60
2018-01-17T08:25:22.637Z,1.58
2018-01-17T08:26:23.341Z,1.56
2018-01-17T08:27:24.056Z,1.60
2018-01-17T08:28:24.760Z,1.63
2018-01-17T08:29:25.464Z,1.59
2018-01-17T08:30:26.168Z,1.63
2018-01-17T08:31:26.884Z,1.63
2018-01-17T08:32:27.586Z,1.62
2018-01-17T08:33:28.287Z,1.62
2018-01-17T08:34:29.005Z,1.56
2018-01-17T08:35:29.708Z,1.62
2018-01-17T08:36:30.413Z,1.62
2018-01-17T08:37:31.131Z,1.50
2018-01-17T08:38:31.834Z,1.55
2018-01-17T08:39:32.539Z,1.55
2018-01-17T08:40:33.240Z,1.49
2018-01-17T08:41:33.944Z,1.59
2018-01-17T08:42:34.663Z,1.52
2018-01-17T08:43:35.379Z,1.53
2018-01-17T08:44:36.095Z,1.58
2018-01-17T08:45:36.799Z,1.58
2018-01-17T08:46:37.502Z,1.60
2018-01-17T08:47:38.206Z,1.59
2018-01-17T08:48:38.909Z,1.56
2018-01-17T08:49:39.612Z,1.67
2018-01-17T08:50:40.317Z,1.60
2018-01-17T08:51:41.022Z,1.66
2018-01-17T08:52:41.727Z,1.68
2018-01-17T08:53:42.431Z,1.58
2018-01-17T08:54:43.135Z,1.68
2018-01-17T08:55:43.855Z,1.66
2018-01-17T08:56:44.559Z,1.67
2018-01-17T08:57:45.264Z,1.67
2018-01-17T08:58:45.968Z,1.68
2018-01-17T08:59:46.678Z,1.67
2018-01-17T09:00:47.389Z,1.68
2018-01-17T09:01:48.094Z,1.68
2018-01-17T09:02:48.800Z,1.71
2018-01-17T09:03:49.503Z,1.71
2018-01-17T09:04:50.207Z,1.73
2018-01-17T09:05:50.926Z,1.70
2018-01-17T09:06:51.645Z,1.66
2018-01-17T09:07:52.361Z,1.71
2018-01-17T09:08:53.065Z,1.71
2018-01-17T09:09:53.770Z,1.77
2018-01-17T09:10:54.476Z,1.67
2018-01-17T09:11:55.196Z,1.85
2018-01-17T09:12:55.901Z,1.80
2018-01-17T09:13:56.605Z,1.80
2018-01-17T09:14:57.316Z,1.74
2018-01-17T09:15:58.015Z,1.81
2018-01-17T09:16:58.731Z,1.87
2018-01-17T09:17:59.436Z,1.85
2018-01-17T09:19:00.156Z,1.84
2018-01-17T09:20:00.866Z,1.92
2018-01-17T09:21:01.568Z,1.85
2018-01-17T09:22:02.275Z,1.95
2018-01-17T09:23:02.978Z,2.00
2018-01-17T09:24:03.683Z,1.92
2018-01-17T09:25:04.390Z,1.97
2018-01-17T09:26:05.095Z,2.04
2018-01-17T09:27:05.807Z,2.06
2018-01-17T09:28:06.509Z,2.07
2018-01-17T09:29:07.216Z,2.07
2018-01-17T09:30:07.919Z,2.06
2018-01-17T09:31:08.626Z,2.13
2018-01-17T09:32:09.331Z,2.20
2018-01-17T09:33:10.036Z,2.20
2018-01-17T09:34:10.742Z,2.15
2018-01-17T09:35:11.450Z,2.31
2018-01-17T09:36:12.158Z,2.29
2018-01-17T09:37:12.864Z,2.33
2018-01-17T09:38:13.572Z,2.31
2018-01-17T09:39:14.277Z,2.46
2018-01-17T09:40:14.996Z,2.43
2018-01-17T09:41:15.703Z,2.51
2018-01-17T09:42:16.409Z,2.71
2018-01-17T09:43:17.118Z,2.72
2018-01-17T09:44:17.829Z,2.77
2018-01-17T09:45:18.543Z,2.79
2018-01-17T09:46:19.252Z,3.13
2018-01-17T09:47:19.961Z,3.36
2018-01-17T09:48:20.672Z,3.56
2018-01-17T09:49:21.383Z,3.68
2018-01-17T09:50:22.095Z,4.06
2018-01-17T09:51:22.819Z,3.91
2018-01-17T09:52:23.529Z,3.95
2018-01-17T09:53:24.253Z,3.58
2018-01-17T09:54:24.963Z,3.51
2018-01-17T09:55:25.690Z,3.41
2018-01-17T09:56:26.400Z,3.48
2018-01-17T09:57:27.110Z,3.31
2018-01-17T09:58:27.821Z,3.21
2018-01-17T09:59:28.532Z,3.18
2018-01-17T10:00:29.241Z,3.00
2018-01-17T10:01:29.949Z,3.04
2018-01-17T10:02:30.660Z,3.04
2018-01-17T10:03:31.369Z,3.07
2018-01-17T10:04:32.080Z,3.34
2018-01-17T10:05:32.791Z,3.31
2018-01-17T10:06:33.501Z,3.28
2018-01-17T10:07:34.212Z,3.29
2018-01-17T10:08:34.922Z,3.05
2018-01-17T10:09:35.632Z,3.10
2018-01-17T10:10:36.352Z,3.14
2018-01-17T10:11:37.050Z,3.13
2018-01-17T10:12:37.759Z,3.18
2018-01-17T10:13:38.468Z,3.10
2018-01-17T10:14:39.177Z,3.03
2018-01-17T10:15:39.885Z,3.05
2018-01-17T10:16:40.597Z,3.04
2018-01-17T10:17:41.319Z,3.01
2018-01-17T10:18:42.029Z,2.98
2018-01-17T10:19:42.739Z,3.01
2018-01-17T10:20:43.446Z,2.98
2018-01-17T10:21:44.156Z,3.08
2018-01-17T10:22:44.867Z,3.08
2018-01-17T10:23:45.592Z,3.58
2018-01-17T10:24:46.301Z,3.70
2018-01-17T10:25:47.011Z,3.63
2018-01-17T10:26:47.725Z,4.06
2018-01-17T10:27:48.450Z,4.44
2018-01-17T10:28:49.161Z,4.67
2018-01-17T10:29:49.872Z,4.60
2018-01-17T10:30:50.596Z,4.30
2018-01-17T10:31:51.350Z,4.08
2018-01-17T10:32:52.036Z,3.86
2018-01-17T10:33:52.748Z,3.91
2018-01-17T10:34:53.462Z,3.92
2018-01-17T10:35:54.176Z,4.08
2018-01-17T10:36:54.889Z,4.13
2018-01-17T10:37:55.615Z,3.99
2018-01-17T10:38:56.326Z,4.06
2018-01-17T10:39:57.053Z,4.48
2018-01-17T10:40:57.764Z,4.70
2018-01-17T10:41:58.491Z,5.14
2018-01-17T10:42:59.221Z,5.32
2018-01-17T10:43:59.936Z,5.15
2018-01-17T10:45:00.665Z,4.97
2018-01-17T10:46:01.381Z,4.70
2018-01-17T10:47:02.095Z,4.55
2018-01-17T10:48:02.810Z,4.32
2018-01-17T10:49:03.524Z,4.26
2018-01-17T10:50:04.237Z,4.14
2018-01-17T10:51:04.953Z,3.86
2018-01-17T10:52:05.666Z,3.98
2018-01-17T10:53:06.382Z,4.02
2018-01-17T10:54:07.098Z,3.98
2018-01-17T10:55:07.813Z,3.95
2018-01-17T10:56:08.528Z,3.98
2018-01-17T10:57:09.256Z,4.16
2018-01-17T10:58:09.970Z,4.31
2018-01-17T10:59:10.686Z,4.34
2018-01-17T11:00:11.400Z,4.34
2018-01-17T11:01:12.115Z,4.04
2018-01-17T11:02:12.830Z,4.01
2018-01-17T11:03:13.559Z,4.19
2018-01-17T11:04:14.274Z,4.13
2018-01-17T11:05:14.985Z,3.81
2018-01-17T11:06:15.711Z,3.87
2018-01-17T11:07:16.423Z,3.77
2018-01-17T11:08:17.137Z,3.66
2018-01-17T11:09:17.849Z,3.59
2018-01-17T11:10:18.560Z,3.50
2018-01-17T11:11:19.270Z,3.60
2018-01-17T11:12:19.981Z,3.51
2018-01-17T11:13:20.693Z,3.51
2018-01-17T11:14:21.405Z,3.51
2018-01-17T11:15:22.115Z,3.48
2018-01-17T11:16:22.824Z,3.50
2018-01-17T11:17:23.532Z,3.42
2018-01-17T11:18:24.255Z,3.40
2018-01-17T11:19:24.978Z,3.41
2018-01-17T11:20:25.686Z,3.41
2018-01-17T11:21:26.394Z,3.34
2018-01-17T11:22:27.101Z,3.31
2018-01-17T11:23:27.810Z,3.21
2018-01-17T11:24:28.521Z,3.31
2018-01-17T11:25:29.243Z,3.22
2018-01-17T11:26:29.954Z,3.18
2018-01-17T11:27:30.662Z,3.07
2018-01-17T11:28:31.367Z,3.07
2018-01-17T11:29:32.073Z,3.08
2018-01-17T11:30:32.781Z,3.05
2018-01-17T11:31:33.502Z,3.07
2018-01-17T11:32:34.265Z,3.08
2018-01-17T11:33:34.920Z,3.18
2018-01-17T11:34:35.641Z,3.03
2018-01-17T11:35:36.350Z,3.08
2018-01-17T11:36:37.056Z,3.18
2018-01-17T11:37:37.768Z,3.13
2018-01-17T11:38:38.476Z,3.18
2018-01-17T11:39:39.185Z,3.11
2018-01-17T11:40:39.896Z,3.14
2018-01-17T11:41:40.601Z,3.28
2018-01-17T11:42:41.311Z,3.29
2018-01-17T11:43:42.023Z,3.31
2018-01-17T11:44:42.746Z,3.34
2018-01-17T11:45:43.455Z,3.36
2018-01-17T11:46:44.163Z,3.42
2018-01-17T11:47:44.873Z,3.42
2018-01-17T11:48:45.582Z,3.63
2018-01-17T11:49:46.294Z,3.59
2018-01-17T11:50:47.005Z,3.62
2018-01-17T11:51:47.714Z,3.65
2018-01-17T11:52:48.427Z,3.50
2018-01-17T11:53:49.147Z,3.56
2018-01-17T11:54:49.856Z,3.58
2018-01-17T11:55:50.582Z,3.56
2018-01-17T11:56:51.286Z,3.60
2018-01-17T11:57:51.995Z,3.65
2018-01-17T11:58:52.704Z,3.58
2018-01-17T11:59:53.410Z,3.60
2018-01-17T12:00:54.116Z,3.56
2018-01-17T12:01:54.836Z,3.55
2018-01-17T12:02:55.545Z,3.63
2018-01-17T12:03:56.254Z,3.56
2018-01-17T12:04:56.961Z,3.59
2018-01-17T12:05:57.672Z,3.55
2018-01-17T12:06:58.379Z,3.63
2018-01-17T12:07:59.088Z,3.58
2018-01-17T12:08:59.794Z,3.60
2018-01-17T12:10:00.501Z,3.60
2018-01-17T12:11:01.209Z,3.56
2018-01-17T12:12:01.917Z,3.62
2018-01-17T12:13:02.627Z,3.59
2018-01-17T12:14:03.347Z,3.59
2018-01-17T12:15:04.067Z,3.59
2018-01-17T12:16:04.774Z,3.58
2018-01-17T12:17:05.480Z,3.56
2018-01-17T12:18:06.186Z,3.60
2018-01-17T12:19:06.898Z,3.50
2018-01-17T12:20:07.600Z,3.47
2018-01-17T12:21:08.305Z,3.50
2018-01-17T12:22:09.025Z,3.37
2018-01-17T12:23:09.732Z,3.37
2018-01-17T12:24:10.438Z,3.42
2018-01-17T12:25:11.142Z,3.34
2018-01-17T12:26:11.845Z,3.40
2018-01-17T12:27:12.550Z,3.23
2018-01-17T12:28:13.253Z,3.18
2018-01-17T12:29:13.956Z,3.13
2018-01-17T12:30:14.662Z,3.11
2018-01-17T12:31:15.365Z,3.08
2018-01-17T12:32:16.070Z,3.07
2018-01-17T12:33:16.774Z,2.97
2018-01-17T12:34:17.478Z,2.92
2018-01-17T12:35:18.184Z,2.85
2018-01-17T12:36:18.887Z,2.85
2018-01-17T12:37:19.604Z,2.87
2018-01-17T12:38:20.311Z,2.79
2018-01-17T12:39:21.015Z,2.77
2018-01-17T12:40:21.719Z,2.79
2018-01-17T12:41:22.423Z,2.80
2018-01-17T12:42:23.143Z,2.75
2018-01-17T12:43:23.847Z,2.75
2018-01-17T12:44:24.554Z,2.71
2018-01-17T12:45:25.271Z,2.75
2018-01-17T12:46:25.980Z,2.74
2018-01-17T12:47:26.685Z,2.71
2018-01-17T12:48:27.392Z,2.65
2018-01-17T12:49:28.098Z,2.64
2018-01-17T12:50:28.823Z,2.54
2018-01-17T12:51:29.540Z,2.49
2018-01-17T12:52:30.252Z,2.54
2018-01-17T12:53:30.970Z,2.43
2018-01-17T12:54:31.673Z,2.50
2018-01-17T12:55:32.378Z,2.54
2018-01-17T12:56:33.082Z,2.38
2018-01-17T12:57:33.788Z,2.44
2018-01-17T12:58:34.490Z,2.29
2018-01-17T12:59:35.206Z,2.29
2018-01-17T13:00:35.910Z,2.15
2018-01-17T13:01:36.615Z,2.22
2018-01-17T13:02:37.321Z,2.15
2018-01-17T13:03:38.025Z,2.07
2018-01-17T13:04:38.729Z,1.97
2018-01-17T13:05:39.432Z,1.91
2018-01-17T13:06:40.137Z,1.99
2018-01-17T13:07:40.883Z,1.91
2018-01-17T13:08:41.560Z,1.95
2018-01-17T13:09:42.264Z,1.97
2018-01-17T13:10:42.968Z,1.94
2018-01-17T13:11:43.673Z,1.95
2018-01-17T13:12:44.377Z,2.07
2018-01-17T13:13:45.081Z,1.99
2018-01-17T13:14:45.783Z,2.10
2018-01-17T13:15:46.484Z,1.95
2018-01-17T13:16:47.186Z,2.06
2018-01-17T13:17:47.902Z,2.04
2018-01-17T13:18:48.620Z,2.08
2018-01-17T13:19:49.342Z,1.94
2018-01-17T13:20:50.056Z,2.02
2018-01-17T13:21:50.760Z,1.97
2018-01-17T13:22:51.477Z,1.80
2018-01-17T13:23:52.181Z,1.85
2018-01-17T13:24:52.885Z,1.70
2018-01-17T13:25:53.594Z,1.67
2018-01-17T13:26:54.291Z,1.70
2018-01-17T13:27:55.011Z,1.68
2018-01-17T13:28:55.713Z,1.63